createdAt,value
2023-05-04T00:00:23.272Z,6.22
2023-05-04T00:03:29.152Z,6.05
2023-05-04T00:06:34.541Z,5.72
2023-05-04T00:09:40.309Z,7.30
2023-05-04T00:12:46.650Z,6.65
2023-05-04T00:15:51.960Z,5.82
2023-05-04T00:18:57.216Z,6.20
2023-05-04T00:22:03.166Z,5.47
2023-05-04T00:25:08.922Z,5.72
2023-05-04T00:28:14.798Z,7.03
2023-05-04T00:31:20.468Z,5.75
2023-05-04T00:34:26.058Z,5.70
2023-05-04T00:37:32.214Z,5.70
2023-05-04T00:40:37.790Z,5.10
2023-05-04T00:43:43.085Z,6.88
2023-05-04T00:46:48.756Z,4.90
2023-05-04T00:49:54.602Z,6.10
2023-05-04T00:53:06.031Z,6.05
2023-05-04T00:56:13.009Z,6.00
2023-05-04T00:59:18.709Z,6.15
2023-05-04T01:02:24.306Z,6.43
2023-05-04T01:05:36.701Z,5.90
2023-05-04T01:08:54.298Z,6.55
2023-05-04T01:12:11.907Z,6.40
2023-05-04T01:15:18.502Z,6.55
2023-05-04T01:18:24.109Z,6.15
2023-05-04T01:21:30.852Z,6.43
2023-05-04T01:24:36.487Z,6.15
2023-05-04T01:27:55.975Z,5.93
2023-05-04T01:31:06.271Z,6.50
2023-05-04T01:34:12.833Z,7.22
2023-05-04T01:37:18.574Z,7.78
2023-05-04T01:40:24.351Z,6.63
2023-05-04T01:43:30.125Z,7.22
2023-05-04T01:46:36.087Z,6.03
2023-05-04T01:49:41.858Z,6.63
2023-05-04T01:52:47.848Z,6.90
2023-05-04T01:55:53.787Z,6.05
2023-05-04T01:58:58.844Z,6.70
2023-05-04T02:02:04.358Z,6.45
2023-05-04T02:05:10.044Z,7.35
2023-05-04T02:08:15.567Z,7.30
2023-05-04T02:11:22.014Z,7.55
2023-05-04T02:14:27.643Z,6.78
2023-05-04T02:17:33.983Z,6.95
2023-05-04T02:20:39.221Z,6.35
2023-05-04T02:23:44.824Z,8.02
2023-05-04T02:26:50.450Z,6.85
2023-05-04T02:29:58.657Z,7.25
2023-05-04T02:33:04.951Z,6.82
2023-05-04T02:36:10.297Z,6.90
2023-05-04T02:39:15.966Z,5.10
2023-05-04T02:42:21.691Z,5.50
2023-05-04T02:45:27.478Z,5.40
2023-05-04T02:48:33.536Z,4.97
2023-05-04T02:51:39.443Z,5.15
2023-05-04T02:54:45.136Z,4.70
2023-05-04T02:57:50.720Z,4.70
2023-05-04T03:00:56.533Z,3.92
2023-05-04T03:04:01.698Z,4.25
2023-05-04T03:07:09.574Z,4.18
2023-05-04T03:10:15.260Z,4.00
2023-05-04T03:13:20.930Z,3.30
2023-05-04T03:16:26.464Z,3.95
2023-05-04T03:19:31.681Z,3.55
2023-05-04T03:22:37.346Z,4.30
2023-05-04T03:25:43.747Z,4.88
2023-05-04T03:28:49.164Z,5.68
2023-05-04T03:31:54.738Z,4.65
2023-05-04T03:35:02.006Z,5.22
2023-05-04T04:39:26.455Z,4.80
2023-05-04T04:42:32.568Z,5.13
2023-05-04T04:45:38.446Z,6.25
2023-05-04T04:48:43.594Z,5.38
2023-05-04T04:51:49.329Z,6.22
2023-05-04T04:54:54.960Z,5.10
2023-05-04T04:58:00.653Z,5.35
2023-05-04T05:01:08.403Z,5.70
2023-05-04T05:04:14.618Z,5.13
2023-05-04T05:07:20.242Z,6.65
2023-05-04T05:10:26.080Z,6.30
2023-05-04T05:13:31.957Z,5.93
2023-05-04T05:16:37.631Z,5.93
2023-05-04T05:19:44.122Z,5.57
2023-05-04T05:22:50.156Z,4.55
2023-05-04T05:25:57.034Z,5.10
2023-05-04T05:29:03.185Z,5.15
2023-05-04T05:32:09.050Z,4.63
2023-05-04T05:35:14.945Z,4.13
2023-05-04T05:38:20.688Z,4.18
2023-05-04T05:41:26.375Z,3.42
2023-05-04T05:44:31.786Z,3.47
2023-05-04T05:47:37.744Z,3.75
2023-05-04T05:50:43.562Z,3.50
2023-05-04T05:53:49.697Z,4.15
2023-05-04T05:56:55.486Z,3.25
2023-05-04T06:00:01.292Z,3.28
2023-05-04T06:03:18.002Z,3.05
2023-05-04T06:06:23.737Z,3.00
2023-05-04T06:09:29.289Z,2.90
2023-05-04T06:12:34.965Z,3.17
2023-05-04T06:15:40.645Z,3.42
2023-05-04T06:18:46.595Z,3.40
2023-05-04T06:21:52.653Z,3.10
2023-05-04T06:25:02.833Z,3.33
2023-05-04T06:28:09.430Z,4.30
2023-05-04T06:31:15.292Z,4.13
2023-05-04T06:34:21.714Z,3.17
2023-05-04T06:37:27.450Z,3.42
2023-05-04T06:40:33.525Z,3.88
2023-05-04T06:43:42.364Z,4.03
2023-05-04T06:46:48.042Z,3.40
2023-05-04T06:49:53.611Z,3.38
2023-05-04T06:53:17.632Z,3.75
2023-05-04T06:56:24.109Z,3.95
2023-05-04T06:59:29.726Z,3.58
2023-05-04T07:02:36.154Z,3.80
2023-05-04T07:05:42.909Z,4.35
2023-05-04T07:08:48.970Z,3.30
2023-05-04T07:11:54.999Z,3.40
2023-05-04T07:15:00.742Z,3.28
2023-05-04T07:18:06.570Z,3.83
2023-05-04T07:21:26.993Z,3.95
2023-05-04T07:24:33.921Z,4.20
2023-05-04T07:27:40.136Z,5.40
2023-05-04T07:30:45.452Z,5.97
2023-05-04T07:33:51.448Z,5.82
2023-05-04T07:36:56.861Z,4.97
2023-05-04T07:40:06.381Z,6.15
2023-05-04T07:43:12.146Z,6.10
2023-05-04T07:46:17.733Z,5.00
2023-05-04T07:49:23.359Z,4.50
2023-05-04T07:52:29.189Z,4.25
2023-05-04T07:55:35.287Z,4.13
2023-05-04T07:58:41.777Z,4.82
2023-05-04T08:01:47.531Z,4.65
2023-05-04T08:04:53.320Z,4.35
2023-05-04T08:07:58.843Z,3.53
2023-05-04T08:11:16.296Z,3.70
2023-05-04T08:14:24.816Z,4.45
2023-05-04T08:17:30.533Z,4.15
2023-05-04T08:20:35.863Z,4.30
2023-05-04T08:23:42.532Z,4.30
2023-05-04T08:26:55.956Z,4.38
2023-05-04T08:30:15.721Z,4.20
2023-05-04T08:38:50.991Z,4.25
2023-05-04T08:41:57.206Z,4.70
2023-05-04T08:45:02.689Z,4.60
2023-05-04T08:48:08.888Z,4.03
2023-05-04T08:51:14.971Z,4.95
2023-05-04T08:54:21.757Z,4.82
2023-05-04T08:57:30.079Z,5.35
2023-05-04T09:00:37.988Z,4.72
2023-05-04T09:03:46.333Z,4.38
2023-05-04T09:06:54.488Z,4.90
2023-05-04T09:10:00.520Z,5.53
2023-05-04T09:13:06.009Z,5.07
2023-05-04T09:16:12.241Z,5.00
2023-05-04T09:19:21.349Z,5.15
2023-05-04T09:22:28.871Z,4.05
2023-05-04T09:25:47.637Z,4.60
2023-05-04T09:28:53.372Z,4.82
2023-05-04T09:31:59.422Z,5.05
2023-05-04T09:35:06.183Z,4.68
2023-05-04T09:38:12.162Z,5.28
2023-05-04T09:41:17.763Z,6.32
2023-05-04T09:44:29.645Z,5.68
2023-05-04T09:47:39.772Z,5.18
2023-05-04T09:51:09.667Z,4.32
2023-05-04T09:54:16.876Z,4.45
2023-05-04T09:57:23.810Z,4.60
2023-05-04T10:00:29.238Z,4.63
2023-05-04T10:03:35.236Z,4.25
2023-05-04T10:06:43.529Z,4.53
2023-05-04T10:09:50.620Z,4.18
2023-05-04T10:12:56.256Z,4.63
2023-05-04T10:16:25.213Z,5.05
2023-05-04T10:20:08.185Z,4.75
2023-05-04T10:23:51.064Z,6.25
2023-05-04T10:27:03.744Z,4.90
2023-05-04T10:30:13.569Z,4.95
2023-05-04T10:33:18.924Z,3.90
2023-05-04T10:36:24.672Z,4.63
2023-05-04T10:39:32.690Z,3.67
2023-05-04T10:42:44.813Z,4.10
2023-05-04T10:45:50.944Z,4.70
2023-05-04T10:48:56.559Z,5.57
2023-05-04T10:52:13.732Z,4.53
2023-05-04T10:55:22.300Z,5.03
2023-05-04T10:58:29.504Z,6.43
2023-05-04T11:01:46.883Z,4.70
2023-05-04T11:05:06.357Z,4.10
2023-05-04T11:08:19.727Z,5.95
2023-05-04T11:11:25.461Z,5.00
2023-05-04T11:14:31.611Z,6.63
2023-05-04T11:17:51.300Z,5.35
2023-05-04T11:20:57.712Z,5.10
2023-05-04T11:24:03.474Z,6.55
2023-05-04T11:27:09.462Z,5.93
2023-05-04T11:30:15.427Z,4.80
2023-05-04T11:33:21.243Z,5.47
2023-05-04T11:36:27.486Z,4.72
2023-05-04T11:39:33.925Z,4.50
2023-05-04T11:42:40.883Z,3.65
2023-05-04T11:45:49.048Z,3.83
2023-05-04T11:48:55.530Z,4.57
2023-05-04T11:52:10.824Z,4.70
2023-05-04T11:55:29.799Z,5.28
2023-05-04T11:58:36.450Z,4.80
2023-05-04T12:01:42.443Z,4.45
2023-05-04T12:04:48.482Z,5.95
2023-05-04T12:07:54.508Z,5.25
2023-05-04T12:11:17.034Z,4.78
2023-05-04T12:14:24.761Z,6.60
2023-05-04T12:17:41.746Z,5.43
2023-05-04T12:20:48.715Z,5.07
2023-05-04T12:23:57.234Z,4.97
2023-05-04T12:27:03.109Z,4.82
2023-05-04T12:30:09.257Z,5.28
2023-05-04T12:33:14.464Z,4.57
2023-05-04T12:36:20.226Z,5.80
2023-05-04T12:39:26.144Z,4.43
2023-05-04T12:42:32.219Z,5.72
2023-05-04T12:45:38.473Z,4.68
2023-05-04T12:48:44.653Z,3.88
2023-05-04T12:51:51.493Z,3.10
2023-05-04T12:54:56.743Z,3.45
2023-05-04T12:58:03.663Z,3.30
2023-05-04T13:01:09.357Z,2.80
2023-05-04T13:04:15.213Z,3.53
2023-05-04T13:07:20.778Z,1.90
2023-05-04T13:10:27.308Z,2.60
2023-05-04T13:13:32.521Z,2.13
2023-05-04T13:16:37.948Z,2.60
2023-05-04T13:19:43.486Z,3.63
2023-05-04T13:22:48.930Z,2.50
2023-05-04T13:25:55.052Z,3.03
2023-05-04T13:29:00.718Z,3.00
2023-05-04T13:32:07.312Z,3.05
2023-05-04T13:35:13.219Z,3.22
2023-05-04T13:38:18.995Z,2.83
2023-05-04T13:41:24.782Z,3.78
2023-05-04T13:44:30.281Z,2.72
2023-05-04T13:47:37.410Z,2.55
2023-05-04T13:50:43.228Z,3.35
2023-05-04T13:53:48.873Z,3.38
2023-05-04T13:56:54.557Z,4.25
2023-05-04T14:00:07.556Z,3.72
2023-05-04T14:03:17.185Z,3.70
2023-05-04T14:06:22.230Z,3.13
2023-05-04T14:09:27.572Z,4.32
2023-05-04T14:12:33.217Z,4.65
2023-05-04T14:15:38.711Z,3.63
2023-05-04T14:18:44.119Z,3.40
2023-05-04T14:21:49.435Z,3.92
2023-05-04T14:24:55.307Z,3.47
2023-05-04T14:28:01.075Z,3.55
2023-05-04T14:31:09.781Z,3.33
2023-05-04T14:34:15.682Z,4.05
2023-05-04T14:37:21.473Z,3.75
2023-05-04T14:40:26.787Z,3.53
2023-05-04T14:43:32.583Z,3.80
2023-05-04T14:46:38.146Z,4.30
2023-05-04T14:49:43.709Z,4.07
2023-05-04T14:52:49.004Z,3.90
2023-05-04T14:55:54.717Z,4.65
2023-05-04T14:59:01.741Z,3.65
2023-05-04T15:02:08.453Z,4.68
2023-05-04T15:05:14.044Z,4.00
2023-05-04T15:08:19.690Z,3.88
2023-05-04T15:11:25.156Z,4.22
2023-05-04T15:14:30.382Z,3.63
2023-05-04T15:17:36.000Z,4.20
2023-05-04T15:20:41.738Z,3.67
2023-05-04T15:23:47.453Z,4.88
2023-05-04T15:26:53.064Z,3.63
2023-05-04T15:29:58.820Z,3.72
2023-05-04T15:33:07.408Z,3.40
2023-05-04T15:36:13.351Z,3.45
2023-05-04T15:39:19.140Z,3.97
2023-05-04T15:42:24.722Z,2.63
2023-05-04T15:45:30.235Z,3.63
2023-05-04T15:48:35.606Z,3.05
2023-05-04T15:51:42.393Z,3.05
2023-05-04T15:54:48.383Z,3.05
2023-05-04T15:57:54.419Z,3.33
2023-05-04T16:01:04.224Z,3.13
2023-05-04T16:04:09.796Z,3.20
2023-05-04T16:07:15.603Z,2.63
2023-05-04T16:10:22.586Z,2.63
2023-05-04T16:13:28.182Z,3.00
2023-05-04T16:16:33.721Z,3.13
2023-05-04T16:19:39.745Z,2.72
2023-05-04T16:22:45.509Z,3.63
2023-05-04T16:25:51.036Z,3.50
2023-05-04T16:28:57.024Z,3.70
2023-05-04T16:32:03.326Z,2.95
2023-05-04T16:35:08.998Z,3.17
2023-05-04T16:38:14.377Z,3.90
2023-05-04T16:41:20.130Z,3.03
2023-05-04T16:44:26.106Z,3.25
2023-05-04T16:47:31.759Z,3.30
2023-05-04T16:50:37.210Z,3.30
2023-05-04T16:53:42.356Z,3.15
2023-05-04T16:56:48.044Z,3.22
2023-05-04T16:59:54.044Z,2.70
2023-05-04T17:02:59.412Z,2.67
2023-05-04T17:06:05.121Z,3.40
2023-05-04T17:09:10.885Z,2.75
2023-05-04T17:12:16.831Z,2.85
2023-05-04T17:15:22.302Z,2.65
2023-05-04T17:18:29.160Z,2.67
2023-05-04T17:21:34.580Z,3.00
2023-05-04T17:24:40.247Z,3.30
2023-05-04T17:27:46.016Z,2.78
2023-05-04T17:30:51.779Z,2.70
2023-05-04T17:33:57.749Z,2.53
2023-05-04T17:37:04.054Z,2.88
2023-05-04T17:40:09.986Z,2.75
2023-05-04T17:43:15.702Z,2.72
2023-05-04T17:46:21.888Z,2.50
2023-05-04T17:49:27.059Z,2.97
2023-05-04T17:52:32.708Z,2.90
2023-05-04T17:55:38.268Z,2.88
2023-05-04T17:58:43.657Z,3.33
2023-05-04T18:01:49.237Z,3.13
2023-05-04T18:04:55.121Z,2.50
2023-05-04T18:08:00.613Z,2.92
2023-05-04T18:11:06.147Z,3.10
2023-05-04T18:14:11.608Z,3.17
2023-05-04T18:17:17.488Z,3.03
2023-05-04T18:20:23.272Z,3.50
2023-05-04T18:23:29.471Z,3.00
2023-05-04T18:26:35.004Z,3.92
2023-05-04T18:29:40.832Z,3.63
2023-05-04T18:32:46.907Z,3.75
2023-05-04T18:35:52.954Z,3.65
2023-05-04T18:39:00.800Z,3.58
2023-05-04T18:42:06.300Z,3.88
2023-05-04T18:45:12.221Z,3.83
2023-05-04T18:48:17.626Z,4.05
2023-05-04T18:51:23.223Z,4.65
2023-05-04T18:54:34.887Z,5.10
2023-05-04T18:57:40.507Z,5.40
2023-05-04T19:00:46.671Z,5.93
2023-05-04T19:03:52.312Z,5.82
2023-05-04T19:06:58.471Z,5.63
2023-05-04T19:10:05.309Z,5.90
2023-05-04T19:13:11.496Z,5.72
2023-05-04T19:16:17.768Z,6.43
2023-05-04T19:19:23.528Z,5.63
2023-05-04T19:22:28.770Z,6.25
2023-05-04T19:25:35.413Z,6.85
2023-05-04T19:28:42.190Z,6.65
2023-05-04T19:31:47.750Z,6.70
2023-05-04T19:34:53.241Z,6.30
2023-05-04T19:37:58.561Z,7.80
2023-05-04T19:41:04.858Z,7.28
2023-05-04T19:44:10.500Z,6.90
2023-05-04T19:47:16.243Z,6.93
2023-05-04T19:50:21.924Z,7.35
2023-05-04T19:53:27.628Z,6.47
2023-05-04T19:56:33.257Z,6.68
2023-05-04T19:59:39.357Z,7.22
2023-05-04T20:02:46.675Z,7.13
2023-05-04T20:05:52.735Z,7.15
2023-05-04T20:08:58.120Z,6.60
2023-05-04T20:12:04.929Z,7.07
2023-05-04T20:15:11.557Z,7.35
2023-05-04T20:18:17.717Z,6.95
2023-05-04T20:21:23.477Z,6.82
2023-05-04T20:24:29.034Z,7.60
2023-05-04T20:27:34.694Z,6.68
2023-05-04T20:30:40.418Z,6.68
2023-05-04T20:33:45.894Z,6.63
2023-05-04T20:36:51.195Z,6.38
2023-05-04T20:39:57.295Z,6.82
2023-05-04T20:43:03.199Z,7.20
2023-05-04T20:46:09.394Z,7.32
2023-05-04T20:49:15.284Z,7.47
2023-05-04T20:52:20.664Z,7.50
2023-05-04T20:55:26.249Z,7.40
2023-05-04T20:58:32.303Z,7.20
2023-05-04T21:01:37.605Z,7.13
2023-05-04T21:04:47.705Z,6.53
2023-05-04T21:07:53.231Z,7.50
2023-05-04T21:10:59.013Z,8.73
2023-05-04T21:14:04.735Z,8.50
2023-05-04T21:17:10.405Z,8.50
2023-05-04T21:20:16.124Z,8.13
2023-05-04T21:23:22.154Z,7.75
2023-05-04T21:26:27.936Z,9.13
2023-05-04T21:29:33.303Z,11.23
2023-05-04T21:32:38.764Z,10.80
2023-05-04T21:35:44.208Z,11.52
2023-05-04T21:38:49.793Z,10.70
2023-05-04T21:41:56.288Z,12.07
2023-05-04T21:45:01.794Z,12.23
2023-05-04T21:48:07.308Z,12.65
2023-05-04T21:51:13.236Z,13.30
2023-05-04T21:54:19.019Z,13.02
2023-05-04T21:57:26.360Z,12.98
2023-05-04T22:00:32.174Z,14.05
2023-05-04T22:03:38.228Z,13.10
2023-05-04T22:06:44.893Z,13.40
2023-05-04T22:09:50.615Z,15.52
2023-05-04T22:12:56.429Z,13.68
2023-05-04T22:16:02.168Z,14.10
2023-05-04T22:19:08.135Z,14.50
2023-05-04T22:22:14.193Z,14.48
2023-05-04T22:25:20.350Z,12.98
2023-05-04T22:28:26.436Z,13.15
2023-05-04T22:31:32.368Z,13.93
2023-05-04T22:34:37.768Z,14.50
2023-05-04T22:37:43.181Z,13.32
2023-05-04T22:40:50.500Z,13.73
2023-05-04T22:43:56.420Z,12.50
2023-05-04T22:47:02.190Z,13.73
2023-05-04T22:50:11.795Z,14.65
2023-05-04T22:53:17.505Z,14.70
2023-05-04T22:56:23.349Z,15.18
2023-05-04T22:59:29.464Z,14.32
2023-05-04T23:02:36.130Z,14.10
2023-05-04T23:05:42.567Z,14.70
2023-05-04T23:08:48.727Z,13.55
2023-05-04T23:11:54.676Z,14.77
2023-05-04T23:15:00.573Z,14.73
2023-05-04T23:18:06.598Z,14.15
2023-05-04T23:21:12.240Z,13.82
2023-05-04T23:24:18.021Z,14.10
2023-05-04T23:27:23.827Z,14.23
2023-05-04T23:30:29.733Z,14.20
2023-05-04T23:33:35.398Z,14.88
2023-05-04T23:36:41.585Z,13.68
2023-05-04T23:39:47.607Z,13.52
2023-05-04T23:42:53.554Z,13.60
2023-05-04T23:46:03.899Z,13.48
2023-05-04T23:49:10.153Z,13.95
2023-05-04T23:52:16.038Z,13.85
2023-05-04T23:55:22.492Z,13.60
2023-05-04T23:58:28.964Z,13.88
